createdAt,value
2023-03-30T00:02:12.859Z,98990.22
2023-03-30T00:04:43.176Z,98996.78
2023-03-30T00:07:15.438Z,99000.97
2023-03-30T00:09:46.592Z,98995.75
2023-03-30T00:12:20.619Z,99000.44
2023-03-30T00:14:52.138Z,98991.53
2023-03-30T00:17:24.265Z,98973.75
2023-03-30T00:19:53.675Z,98972.72
2023-03-30T00:22:22.740Z,98961.72
2023-03-30T00:24:53.111Z,98967.44
2023-03-30T00:27:22.315Z,98974.28
2023-03-30T00:29:51.257Z,98967.19
2023-03-30T00:32:20.289Z,98960.13
2023-03-30T00:34:54.610Z,98961.69
2023-03-30T00:37:23.749Z,98966.16
2023-03-30T00:39:54.318Z,98960.13
2023-03-30T00:42:27.143Z,98962.75
2023-03-30T00:45:17.989Z,98954.09
2023-03-30T00:48:02.369Z,98953.84
2023-03-30T00:50:37.033Z,98954.63
2023-03-30T00:53:29.080Z,98947.03
2023-03-30T00:56:03.296Z,98950.97
2023-03-30T00:58:33.250Z,98941.28
2023-03-30T01:01:05.831Z,98949.69
2023-03-30T01:03:39.105Z,98947.06
2023-03-30T01:06:09.820Z,98947.06
2023-03-30T01:08:41.115Z,98937.34
2023-03-30T01:11:12.007Z,98933.97
2023-03-30T01:13:44.757Z,98932.91
2023-03-30T01:16:26.362Z,98936.81
2023-03-30T01:19:11.531Z,98953.59
2023-03-30T01:22:24.944Z,98949.69
2023-03-30T01:25:20.557Z,98936.59
2023-03-30T01:28:18.113Z,98925.06
2023-03-30T01:31:27.449Z,98933.41
2023-03-30T01:35:00.576Z,98930.03
2023-03-30T01:38:09.955Z,98940.75
2023-03-30T01:40:45.935Z,98941.25
2023-03-30T01:43:19.365Z,98949.66
2023-03-30T01:45:56.912Z,98959.59
2023-03-30T01:48:34.522Z,98947.81
2023-03-30T01:51:08.136Z,98950.16
2023-03-30T01:53:45.492Z,98953.34
2023-03-30T01:56:20.898Z,98957.25
2023-03-30T01:58:57.023Z,98960.41
2023-03-30T02:01:29.047Z,98950.69
2023-03-30T02:04:00.447Z,98952.25
2023-03-30T02:06:38.767Z,98953.06
2023-03-30T02:09:12.359Z,98957.22
2023-03-30T02:11:47.730Z,98956.97
2023-03-30T02:14:23.432Z,98962.22
2023-03-30T02:17:00.318Z,98981.06
2023-03-30T02:19:31.766Z,98973.22
2023-03-30T02:22:01.803Z,98972.94
2023-03-30T02:24:33.912Z,98969.00
2023-03-30T02:27:05.234Z,98978.44
2023-03-30T02:29:39.069Z,98973.72
2023-03-30T02:32:16.810Z,98979.50
2023-03-30T02:35:18.900Z,98974.25
2023-03-30T02:38:07.727Z,98974.25
2023-03-30T02:40:45.984Z,98954.06
2023-03-30T02:43:28.655Z,98944.88
2023-03-30T02:46:23.009Z,98963.22
2023-03-30T02:49:08.566Z,98966.38
2023-03-30T02:51:46.883Z,98970.56
2023-03-30T02:54:38.497Z,98971.88
2023-03-30T02:57:32.418Z,98955.38
2023-03-30T03:00:32.369Z,98941.22
2023-03-30T03:03:12.641Z,98932.31
2023-03-30T03:05:44.833Z,98940.19
2023-03-30T03:08:17.469Z,98931.00
2023-03-30T03:10:48.638Z,98943.03
2023-03-30T03:13:20.916Z,98955.59
2023-03-30T03:15:56.227Z,98961.38
2023-03-30T03:18:27.117Z,98980.47
2023-03-30T03:20:59.756Z,98968.16
2023-03-30T03:23:29.039Z,98966.84
2023-03-30T03:26:00.292Z,98951.13
2023-03-30T03:28:31.795Z,98943.00
2023-03-30T03:31:09.001Z,98950.59
2023-03-30T03:33:38.367Z,98945.34
2023-03-30T03:36:23.699Z,98937.50
2023-03-30T03:38:56.016Z,98940.13
2023-03-30T03:41:26.366Z,98931.19
2023-03-30T03:43:55.659Z,98925.19
2023-03-30T03:46:26.440Z,98929.63
2023-03-30T03:48:55.741Z,98925.94
2023-03-30T03:51:25.012Z,98915.47
2023-03-30T03:53:56.990Z,98898.47
2023-03-30T03:56:26.833Z,98892.44
2023-03-30T03:59:02.972Z,98882.22
2023-03-30T04:01:34.070Z,98878.84
2023-03-30T04:04:06.791Z,98864.16
2023-03-30T04:06:36.301Z,98873.59
2023-03-30T04:09:05.611Z,98877.25
2023-03-30T04:12:00.853Z,98875.19
2023-03-30T04:15:01.759Z,98854.78
2023-03-30T04:17:59.742Z,98841.16
2023-03-30T04:20:48.230Z,98850.81
2023-03-30T04:23:37.034Z,98837.22
2023-03-30T04:26:35.584Z,98828.09
2023-03-30T04:29:30.936Z,98818.91
2023-03-30T04:32:20.838Z,98806.59
2023-03-30T04:35:16.706Z,98812.91
2023-03-30T04:38:06.178Z,98800.84
2023-03-30T04:41:03.029Z,98796.66
2023-03-30T04:43:57.114Z,98796.66
2023-03-30T04:46:46.205Z,98806.66
2023-03-30T04:49:34.159Z,98817.41
2023-03-30T04:52:24.726Z,98819.22
2023-03-30T04:55:02.365Z,98817.94
2023-03-30T04:57:50.724Z,98818.97
2023-03-30T05:00:54.026Z,98813.50
2023-03-30T05:03:43.493Z,98816.38
2023-03-30T05:06:29.709Z,98824.50
2023-03-30T05:09:20.484Z,98809.84
2023-03-30T05:12:08.690Z,98816.13
2023-03-30T05:14:44.099Z,98820.59
2023-03-30T05:17:35.085Z,98825.03
2023-03-30T05:20:26.969Z,98820.06
2023-03-30T05:23:14.417Z,98821.13
2023-03-30T05:26:05.265Z,98824.00
2023-03-30T05:28:53.505Z,98821.88
2023-03-30T05:31:48.550Z,98831.06
2023-03-30T05:34:56.663Z,98842.84
2023-03-30T05:38:01.256Z,98859.59
2023-03-30T05:40:53.978Z,98855.41
2023-03-30T05:44:00.238Z,98862.75
2023-03-30T05:46:58.638Z,98861.19
2023-03-30T05:49:45.122Z,98865.66
2023-03-30T05:52:26.875Z,98879.75
2023-03-30T05:54:59.466Z,98911.97
2023-03-30T05:57:46.959Z,98948.88
2023-03-30T06:00:24.292Z,98981.06
2023-03-30T06:03:02.434Z,99013.78
2023-03-30T06:05:36.050Z,99009.88
2023-03-30T06:08:08.114Z,98981.63
2023-03-30T06:10:39.150Z,98981.88
2023-03-30T06:13:13.180Z,98989.97
2023-03-30T06:15:54.335Z,99025.06
2023-03-30T06:18:27.513Z,99032.38
2023-03-30T06:21:06.975Z,99023.97
2023-03-30T06:23:49.163Z,99018.50
2023-03-30T06:26:23.374Z,98998.09
2023-03-30T06:28:52.741Z,99005.16
2023-03-30T06:31:23.715Z,99022.16
2023-03-30T06:34:01.086Z,99024.53
2023-03-30T06:36:45.127Z,99025.03
2023-03-30T06:39:17.542Z,99023.97
2023-03-30T06:41:47.225Z,99031.03
2023-03-30T06:44:39.842Z,99032.34
2023-03-30T06:47:15.394Z,99027.13
2023-03-30T06:49:44.509Z,99011.44
2023-03-30T06:52:36.190Z,98998.31
2023-03-30T06:55:08.137Z,98991.53
2023-03-30T06:57:37.885Z,98976.38
2023-03-30T07:00:13.969Z,98980.28
2023-03-30T07:02:45.577Z,98971.09
2023-03-30T07:05:37.955Z,98960.41
2023-03-30T07:08:14.426Z,98982.63
2023-03-30T07:10:51.427Z,98982.63
2023-03-30T07:13:22.006Z,98981.84
2023-03-30T07:15:53.621Z,98966.16
2023-03-30T07:18:24.390Z,98958.03
2023-03-30T07:20:53.579Z,98954.38
2023-03-30T07:23:27.661Z,98963.28
2023-03-30T07:25:57.104Z,98968.50
2023-03-30T07:28:33.292Z,98963.28
2023-03-30T07:31:08.145Z,98958.03
2023-03-30T07:33:42.712Z,98960.66
2023-03-30T07:36:15.794Z,98968.50
2023-03-30T07:38:48.070Z,98971.91
2023-03-30T07:41:17.987Z,98963.28
2023-03-30T07:43:50.639Z,98951.25
2023-03-30T07:46:19.805Z,98947.03
2023-03-30T07:48:53.899Z,98939.19
2023-03-30T07:51:24.262Z,98924.81
2023-03-30T07:54:01.716Z,98921.97
2023-03-30T07:56:41.110Z,98918.81
2023-03-30T07:59:10.862Z,98904.44
2023-03-30T08:01:40.842Z,98901.00
2023-03-30T08:04:19.376Z,98920.34
2023-03-30T08:06:49.844Z,98931.59
2023-03-30T08:09:20.128Z,98924.03
2023-03-30T08:11:49.270Z,98924.78
2023-03-30T08:14:18.283Z,98925.03
2023-03-30T08:16:50.905Z,98925.03
2023-03-30T08:19:22.184Z,98940.72
2023-03-30T08:21:51.196Z,98935.50
2023-03-30T08:24:20.303Z,98922.44
2023-03-30T08:26:49.343Z,98926.91
2023-03-30T08:29:18.847Z,98928.16
2023-03-30T08:31:48.547Z,98925.06
2023-03-30T08:34:18.278Z,98937.31
2023-03-30T08:36:48.639Z,98945.16
2023-03-30T08:39:17.633Z,98946.47
2023-03-30T08:42:44.031Z,98943.84
2023-03-30T08:45:16.260Z,98952.72
2023-03-30T08:47:49.270Z,98941.78
2023-03-30T08:50:29.999Z,98949.59
2023-03-30T08:53:00.857Z,98940.97
2023-03-30T08:55:36.352Z,98945.16
2023-03-30T08:58:13.099Z,98964.75
2023-03-30T09:00:48.131Z,98962.13
2023-03-30T09:03:24.805Z,98949.59
2023-03-30T09:05:57.975Z,98959.25
2023-03-30T09:08:31.299Z,98950.38
2023-03-30T09:11:02.805Z,98947.75
2023-03-30T09:13:37.955Z,98959.53
2023-03-30T09:16:17.020Z,98974.19
2023-03-30T09:18:49.527Z,98973.13
2023-03-30T09:21:23.340Z,98960.59
2023-03-30T09:23:59.171Z,98958.50
2023-03-30T09:26:42.529Z,98958.50
2023-03-30T09:29:17.854Z,98962.66
2023-03-30T09:31:52.427Z,98968.44
2023-03-30T09:34:29.115Z,98975.22
2023-03-30T09:37:01.508Z,98972.34
2023-03-30T09:39:33.980Z,98971.84
2023-03-30T09:42:20.060Z,98985.47
2023-03-30T09:44:51.497Z,98973.72
2023-03-30T09:47:27.142Z,98961.19
2023-03-30T09:50:01.238Z,98973.19
2023-03-30T09:52:37.304Z,98974.75
2023-03-30T09:55:30.094Z,98980.00
2023-03-30T09:58:17.451Z,98972.44
2023-03-30T10:01:04.361Z,98981.31
2023-03-30T10:03:33.909Z,98976.88
2023-03-30T10:06:07.695Z,98966.69
2023-03-30T10:08:43.653Z,98959.91
2023-03-30T10:11:14.101Z,98958.31
2023-03-30T10:13:44.654Z,98967.22
2023-03-30T10:16:25.501Z,98966.44
2023-03-30T10:18:57.794Z,98965.66
2023-03-30T10:21:31.300Z,98977.97
2023-03-30T10:24:08.184Z,98962.25
2023-03-30T10:26:39.515Z,98957.78
2023-03-30T10:29:12.800Z,98956.75
2023-03-30T10:31:46.257Z,98962.75
2023-03-30T10:34:20.780Z,98966.41
2023-03-30T10:36:54.781Z,98955.16
2023-03-30T10:39:29.459Z,98960.66
2023-03-30T10:42:02.604Z,98959.34
2023-03-30T10:44:34.340Z,98962.19
2023-03-30T10:47:21.725Z,98966.94
2023-03-30T10:50:01.805Z,98966.69
2023-03-30T10:52:51.959Z,98967.97
2023-03-30T10:55:33.854Z,98960.66
2023-03-30T10:58:25.631Z,98966.41
2023-03-30T11:01:12.017Z,98975.84
2023-03-30T11:03:46.258Z,98974.50
2023-03-30T11:06:22.950Z,98975.81
2023-03-30T11:08:55.270Z,98984.19
2023-03-30T11:11:41.266Z,98977.13
2023-03-30T11:14:18.295Z,98977.38
2023-03-30T11:16:53.785Z,98974.75
2023-03-30T11:19:33.336Z,98980.50
2023-03-30T11:22:10.729Z,98978.91
2023-03-30T11:24:42.569Z,98983.34
2023-03-30T11:27:18.750Z,98964.50
2023-03-30T11:29:52.590Z,98978.34
2023-03-30T11:32:33.141Z,98968.63
2023-03-30T11:35:12.040Z,98979.91
2023-03-30T11:37:48.459Z,98989.31
2023-03-30T11:40:21.665Z,98964.13
2023-03-30T11:42:51.627Z,98969.09
2023-03-30T11:45:48.575Z,98973.75
2023-03-30T11:48:52.025Z,98974.28
2023-03-30T11:51:39.092Z,98963.25
2023-03-30T11:55:02.369Z,98972.94
2023-03-30T11:57:39.606Z,98967.16
2023-03-30T12:00:29.384Z,98982.09
2023-03-30T12:03:09.921Z,98967.66
2023-03-30T12:05:42.049Z,98958.44
2023-03-30T12:08:42.190Z,98966.84
2023-03-30T12:11:22.714Z,98962.88
2023-03-30T12:13:52.577Z,98954.22
2023-03-30T12:16:34.639Z,98947.16
2023-03-30T12:19:12.987Z,98935.84
2023-03-30T12:21:52.963Z,98925.09
2023-03-30T12:24:30.830Z,98929.31
2023-03-30T12:27:06.214Z,98925.09
2023-03-30T12:30:02.499Z,98927.44
2023-03-30T12:32:36.746Z,98952.13
2023-03-30T12:35:47.793Z,98962.88
2023-03-30T12:38:20.565Z,98943.22
2023-03-30T12:41:03.776Z,98937.72
2023-03-30T12:43:43.758Z,98939.34
2023-03-30T12:46:20.148Z,98923.66
2023-03-30T12:48:58.745Z,98921.03
2023-03-30T12:51:50.158Z,98917.41
2023-03-30T12:54:40.925Z,98923.41
2023-03-30T12:57:26.043Z,98916.88
2023-03-30T13:00:19.682Z,98903.53
2023-03-30T13:03:29.786Z,98904.84
2023-03-30T13:06:02.377Z,98905.91
2023-03-30T13:08:37.110Z,98905.91
2023-03-30T13:11:16.538Z,98911.91
2023-03-30T13:13:55.941Z,98908.53
2023-03-30T13:16:49.177Z,98909.59
2023-03-30T13:19:28.703Z,98910.63
2023-03-30T13:22:18.329Z,98907.50
2023-03-30T13:24:54.619Z,98921.16
2023-03-30T13:27:31.023Z,98904.13
2023-03-30T13:30:06.463Z,98902.53
2023-03-30T13:32:50.510Z,98901.78
2023-03-30T13:35:34.585Z,98903.34
2023-03-30T13:38:57.243Z,98900.47
2023-03-30T13:41:46.825Z,98892.34
2023-03-30T13:44:38.605Z,98885.78
2023-03-30T13:47:27.398Z,98885.22
2023-03-30T13:50:03.451Z,98879.72
2023-03-30T13:52:38.320Z,98882.88
2023-03-30T13:55:21.944Z,98873.16
2023-03-30T13:57:55.672Z,98869.75
2023-03-30T14:00:39.726Z,98868.19
2023-03-30T14:03:43.718Z,98857.72
2023-03-30T14:06:21.071Z,98855.09
2023-03-30T14:09:09.408Z,98854.34
2023-03-30T14:11:44.749Z,98857.47
2023-03-30T14:14:21.957Z,98858.75
2023-03-30T14:16:51.931Z,98860.34
2023-03-30T14:19:26.375Z,98861.91
2023-03-30T14:21:59.183Z,98856.38
2023-03-30T14:24:31.999Z,98855.31
2023-03-30T14:27:13.355Z,98849.31
2023-03-30T14:29:47.176Z,98857.94
2023-03-30T14:32:19.582Z,98869.97
2023-03-30T14:34:50.657Z,98871.84
2023-03-30T14:37:21.498Z,98869.97
2023-03-30T14:39:54.843Z,98873.41
2023-03-30T14:42:28.303Z,98892.00
2023-03-30T14:44:59.082Z,98902.28
2023-03-30T14:47:30.665Z,98914.84
2023-03-30T14:50:04.000Z,98927.44
2023-03-30T14:52:36.831Z,98939.25
2023-03-30T14:55:16.762Z,98957.84
2023-03-30T14:57:49.924Z,98949.50
2023-03-30T15:00:22.745Z,98936.13
2023-03-30T15:02:55.938Z,98934.78
2023-03-30T15:05:28.064Z,98931.91
2023-03-30T15:07:57.408Z,98931.91
2023-03-30T15:10:32.757Z,98922.19
2023-03-30T15:13:04.545Z,98923.78
2023-03-30T15:15:34.055Z,98920.88
2023-03-30T15:18:05.367Z,98903.84
2023-03-30T15:20:34.437Z,98900.16
2023-03-30T15:23:03.630Z,98906.19
2023-03-30T15:25:36.197Z,98900.16
2023-03-30T15:28:09.410Z,98889.66
2023-03-30T15:30:42.563Z,98894.16
2023-03-30T15:33:23.679Z,98894.91
2023-03-30T15:35:54.396Z,98891.00
2023-03-30T15:38:32.251Z,98893.34
2023-03-30T15:41:02.347Z,98899.38
2023-03-30T15:43:33.799Z,98889.66
2023-03-30T15:46:07.658Z,98902.50
2023-03-30T15:48:44.136Z,98900.66
2023-03-30T15:51:17.468Z,98895.94
2023-03-30T15:53:55.111Z,98892.53
2023-03-30T15:56:28.982Z,98881.78
2023-03-30T15:59:00.461Z,98883.34
2023-03-30T16:01:44.437Z,98885.97
2023-03-30T16:04:17.708Z,98873.13
2023-03-30T16:06:47.616Z,98887.78
2023-03-30T16:09:17.174Z,98885.97
2023-03-30T16:11:47.251Z,98880.72
2023-03-30T16:14:21.029Z,98884.91
2023-03-30T16:16:50.435Z,98887.53
2023-03-30T16:19:24.756Z,98880.72
2023-03-30T16:21:53.825Z,98888.59
2023-03-30T16:24:25.033Z,98895.38
2023-03-30T16:26:54.215Z,98900.91
2023-03-30T16:29:26.304Z,98891.47
2023-03-30T16:31:56.467Z,98895.94
2023-03-30T16:34:26.731Z,98895.94
2023-03-30T16:36:56.009Z,98895.94
2023-03-30T16:39:30.222Z,98899.59
2023-03-30T16:41:59.523Z,98899.88
2023-03-30T16:44:29.837Z,98907.47
2023-03-30T16:46:58.850Z,98906.97
2023-03-30T16:49:28.148Z,98913.78
2023-03-30T16:51:58.107Z,98911.44
2023-03-30T16:54:32.534Z,98921.91
2023-03-30T16:57:03.800Z,98932.13
2023-03-30T16:59:34.734Z,98933.19
2023-03-30T17:02:03.940Z,98959.41
2023-03-30T17:04:33.001Z,98958.34
2023-03-30T17:07:02.062Z,98958.59
2023-03-30T17:09:31.187Z,98968.34
2023-03-30T17:12:00.609Z,98949.22
2023-03-30T17:14:30.235Z,98950.56
2023-03-30T17:17:02.815Z,98960.00
2023-03-30T17:19:31.901Z,98941.13
2023-03-30T17:22:00.912Z,98946.16
2023-03-30T17:24:29.973Z,98947.97
2023-03-30T17:27:02.761Z,98940.13
2023-03-30T17:29:31.797Z,98934.06
2023-03-30T17:32:02.191Z,98947.44
2023-03-30T17:34:31.226Z,98952.19
2023-03-30T17:37:00.275Z,98951.66
2023-03-30T17:39:29.354Z,98952.97
2023-03-30T17:42:00.138Z,98958.75
2023-03-30T17:44:29.126Z,98949.59
2023-03-30T17:46:58.059Z,98953.81
2023-03-30T17:49:28.437Z,98955.88
2023-03-30T17:51:57.408Z,98960.09
2023-03-30T17:54:27.596Z,98955.38
2023-03-30T17:56:56.611Z,98964.84
2023-03-30T17:59:25.662Z,98963.53
2023-03-30T18:01:54.757Z,98970.06
2023-03-30T18:04:23.769Z,98965.34
2023-03-30T18:06:54.129Z,98969.03
2023-03-30T18:09:23.129Z,98976.38
2023-03-30T18:11:52.112Z,98977.41
2023-03-30T18:14:21.096Z,98976.91
2023-03-30T18:16:50.466Z,98975.28
2023-03-30T18:19:19.540Z,98977.41
2023-03-30T18:21:48.477Z,98974.78
2023-03-30T18:24:18.893Z,98980.78
2023-03-30T18:26:47.875Z,98980.03
2023-03-30T18:29:20.325Z,98981.06
2023-03-30T18:31:52.591Z,98996.25
2023-03-30T18:34:21.596Z,99024.50
2023-03-30T18:36:53.624Z,99037.84
2023-03-30T18:39:23.988Z,99037.63
2023-03-30T18:41:53.045Z,99030.53
2023-03-30T18:44:22.030Z,99025.03
2023-03-30T18:46:52.529Z,99022.16
2023-03-30T18:49:23.755Z,99016.41
2023-03-30T18:51:53.405Z,99030.78
2023-03-30T18:54:23.822Z,99022.44
2023-03-30T18:56:52.803Z,99023.47
2023-03-30T18:59:23.070Z,99024.25
2023-03-30T19:01:52.171Z,99021.91
2023-03-30T19:04:21.404Z,99034.19
2023-03-30T19:06:52.968Z,99030.00
2023-03-30T19:09:36.403Z,99046.78
2023-03-30T19:12:14.707Z,99055.91
2023-03-30T19:14:43.822Z,99059.06
2023-03-30T19:17:16.059Z,99053.56
2023-03-30T19:19:45.063Z,99060.34
2023-03-30T19:22:17.068Z,99067.66
2023-03-30T19:24:47.704Z,99083.88
2023-03-30T19:27:17.136Z,99080.75
2023-03-30T19:29:46.212Z,99076.81
2023-03-30T19:32:16.586Z,99038.63
2023-03-30T19:34:45.563Z,99028.66
2023-03-30T19:40:25.740Z,99052.47
2023-03-30T19:42:54.746Z,99052.72
2023-03-30T19:45:24.856Z,99048.53
2023-03-30T19:47:55.130Z,99049.56
2023-03-30T19:50:25.201Z,99048.00
2023-03-30T19:52:55.258Z,99048.00
2023-03-30T19:55:25.718Z,99048.25
2023-03-30T19:57:54.728Z,99044.88
2023-03-30T20:00:24.371Z,99043.28
2023-03-30T20:02:55.527Z,99045.38
2023-03-30T20:05:26.379Z,99028.09
2023-03-30T20:07:57.564Z,99026.03
2023-03-30T20:10:28.479Z,99020.81
2023-03-30T20:12:57.686Z,99018.69
2023-03-30T20:15:27.269Z,99007.72
2023-03-30T20:17:59.394Z,99003.53
2023-03-30T20:20:28.395Z,98993.06
2023-03-30T20:22:57.336Z,98993.84
2023-03-30T20:25:28.018Z,98990.97
2023-03-30T20:27:56.964Z,98999.88
2023-03-30T20:30:26.190Z,98995.69
2023-03-30T20:33:06.627Z,98997.50
2023-03-30T20:35:37.452Z,98988.31
2023-03-30T20:38:08.397Z,99001.41
2023-03-30T20:40:39.047Z,98985.97
2023-03-30T20:43:10.065Z,98987.53
2023-03-30T20:45:46.201Z,98979.69
2023-03-30T20:48:26.476Z,98979.44
2023-03-30T20:50:56.804Z,98972.63
2023-03-30T20:53:26.023Z,98971.06
2023-03-30T20:55:56.674Z,98972.63
2023-03-30T20:58:29.096Z,98972.91
2023-03-30T21:00:59.394Z,98988.84
2023-03-30T21:03:30.163Z,98988.84
2023-03-30T21:06:04.759Z,99008.19
2023-03-30T21:08:34.664Z,99016.28
2023-03-30T21:11:07.090Z,99019.16
2023-03-30T21:13:36.953Z,99020.19
2023-03-30T21:16:08.381Z,99008.16
2023-03-30T21:18:37.741Z,98999.56
2023-03-30T21:21:09.639Z,98985.94
2023-03-30T21:23:39.986Z,98974.69
2023-03-30T21:26:10.692Z,98961.13
2023-03-30T21:28:42.776Z,98957.16
2023-03-30T21:31:16.424Z,98961.63
2023-03-30T21:33:45.879Z,98953.00
2023-03-30T21:36:15.004Z,98954.03
2023-03-30T21:38:44.023Z,98948.03
2023-03-30T21:41:17.382Z,98944.91
2023-03-30T21:43:48.307Z,98938.06
2023-03-30T21:46:19.693Z,98934.69
2023-03-30T21:48:53.129Z,98932.09
2023-03-30T21:51:25.705Z,98927.63
2023-03-30T21:53:55.993Z,98919.78
2023-03-30T21:56:29.809Z,98923.19
2023-03-30T21:58:59.164Z,98926.84
2023-03-30T22:01:28.523Z,98922.91
2023-03-30T22:03:58.664Z,98913.75
2023-03-30T22:06:28.009Z,98908.53
2023-03-30T22:08:57.177Z,98913.00
2023-03-30T22:11:27.936Z,98902.53
2023-03-30T22:13:56.938Z,98904.38
2023-03-30T22:16:33.182Z,98899.94
2023-03-30T22:19:02.919Z,98901.75
2023-03-30T22:21:35.758Z,98902.53
2023-03-30T22:24:08.317Z,98897.56
2023-03-30T22:26:38.875Z,98888.94
2023-03-30T22:29:07.903Z,98887.38
2023-03-30T22:31:36.971Z,98878.75
2023-03-30T22:34:07.231Z,98877.94
2023-03-30T22:36:36.363Z,98875.88
2023-03-30T22:39:05.579Z,98869.06
2023-03-30T22:41:34.569Z,98865.94
2023-03-30T22:44:04.960Z,98862.53
2023-03-30T22:46:33.947Z,98856.78
2023-03-30T22:49:05.974Z,98852.34
2023-03-30T22:51:38.343Z,98842.66
2023-03-30T22:54:07.464Z,98842.41
2023-03-30T22:56:36.459Z,98834.59
2023-03-30T22:59:06.853Z,98827.75
2023-03-30T23:01:37.070Z,98822.03
2023-03-30T23:04:06.772Z,98823.09
2023-03-30T23:06:36.564Z,98827.50
2023-03-30T23:09:06.801Z,98819.94
2023-03-30T23:11:36.061Z,98810.53
2023-03-30T23:14:06.403Z,98809.50
2023-03-30T23:16:37.536Z,98807.94
2023-03-30T23:19:14.568Z,98806.34
2023-03-30T23:21:44.722Z,98794.34
2023-03-30T23:24:16.064Z,98795.91
2023-03-30T23:26:45.050Z,98795.63
2023-03-30T23:29:16.960Z,98788.59
2023-03-30T23:31:45.969Z,98781.56
2023-03-30T23:34:16.819Z,98776.31
2023-03-30T23:36:49.717Z,98778.16
2023-03-30T23:39:18.758Z,98775.00
2023-03-30T23:41:47.802Z,98771.38
2023-03-30T23:44:16.993Z,98763.53
2023-03-30T23:46:46.479Z,98763.53
2023-03-30T23:49:17.660Z,98756.72
2023-03-30T23:51:46.915Z,98758.31
2023-03-30T23:54:16.018Z,98745.25
2023-03-30T23:56:46.997Z,98740.03
2023-03-30T23:59:16.536Z,98742.38
